createdAt,value
2023-05-05T00:00:54.930Z,150.70
2023-05-05T00:01:55.001Z,151.80
2023-05-05T00:02:55.075Z,148.38
2023-05-05T00:03:54.960Z,152.50
2023-05-05T00:04:54.956Z,153.38
2023-05-05T00:05:54.936Z,156.62
2023-05-05T00:06:54.999Z,153.60
2023-05-05T00:07:54.918Z,152.41
2023-05-05T00:08:54.892Z,149.16
2023-05-05T00:09:54.877Z,149.09
2023-05-05T00:10:55.879Z,159.52
2023-05-05T00:11:55.941Z,153.69
2023-05-05T00:12:54.941Z,151.94
2023-05-05T00:13:55.128Z,150.55
2023-05-05T00:14:55.058Z,155.63
2023-05-05T00:15:54.874Z,151.40
2023-05-05T00:16:55.911Z,145.41
2023-05-05T00:17:55.987Z,154.62
2023-05-05T00:18:55.007Z,152.48
2023-05-05T00:19:54.996Z,152.07
2023-05-05T00:20:54.930Z,146.48
2023-05-05T00:21:54.981Z,149.15
2023-05-05T00:22:55.010Z,152.26
2023-05-05T00:23:55.985Z,157.24
2023-05-05T00:24:55.003Z,147.88
2023-05-05T00:25:54.958Z,145.18
2023-05-05T00:26:54.946Z,150.04
2023-05-05T00:27:55.011Z,152.95
2023-05-05T00:28:54.924Z,150.04
2023-05-05T00:29:54.931Z,158.12
2023-05-05T00:30:56.103Z,154.78
2023-05-05T00:31:54.958Z,155.73
2023-05-05T00:32:54.996Z,142.28
2023-05-05T00:33:56.065Z,155.97
2023-05-05T00:34:55.977Z,153.95
2023-05-05T00:35:56.040Z,146.46
2023-05-05T00:36:55.068Z,152.55
2023-05-05T00:37:55.125Z,155.48
2023-05-05T00:38:55.137Z,155.37
2023-05-05T00:39:56.087Z,147.63
2023-05-05T00:40:55.109Z,155.03
2023-05-05T00:41:56.019Z,151.82
2023-05-05T00:42:56.114Z,148.59
2023-05-05T00:43:55.013Z,149.96
2023-05-05T00:44:55.119Z,146.85
2023-05-05T00:45:55.112Z,150.26
2023-05-05T00:46:55.027Z,147.47
2023-05-05T00:47:55.080Z,149.80
2023-05-05T00:48:55.067Z,156.44
2023-05-05T00:49:56.022Z,146.96
2023-05-05T00:50:55.084Z,148.86
2023-05-05T00:51:55.033Z,145.88
2023-05-05T00:52:56.048Z,156.32
2023-05-05T00:53:55.048Z,143.19
2023-05-05T00:54:56.142Z,150.81
2023-05-05T00:55:55.087Z,145.52
2023-05-05T00:56:56.128Z,156.02
2023-05-05T00:57:55.132Z,146.58
2023-05-05T00:58:55.069Z,153.07
2023-05-05T00:59:56.038Z,149.66
2023-05-05T01:00:56.094Z,144.33
2023-05-05T01:01:56.152Z,154.86
2023-05-05T01:02:55.191Z,148.00
2023-05-05T01:03:55.151Z,144.18
2023-05-05T01:04:56.120Z,144.68
2023-05-05T01:05:55.155Z,147.71
2023-05-05T01:06:55.113Z,145.27
2023-05-05T01:07:55.061Z,147.59
2023-05-05T01:08:55.197Z,151.29
2023-05-05T01:10:04.475Z,153.60
2023-05-05T01:10:56.045Z,153.77
2023-05-05T01:11:55.078Z,153.95
2023-05-05T01:12:55.088Z,151.48
2023-05-05T01:13:55.007Z,146.50
2023-05-05T01:14:55.084Z,153.73
2023-05-05T01:15:55.066Z,151.65
2023-05-05T01:16:54.970Z,153.09
2023-05-05T01:17:56.022Z,151.87
2023-05-05T01:18:54.981Z,146.88
2023-05-05T01:19:55.036Z,153.77
2023-05-05T01:20:54.942Z,151.57
2023-05-05T01:21:56.038Z,145.74
2023-05-05T01:22:55.928Z,145.95
2023-05-05T01:23:56.024Z,150.21
2023-05-05T01:24:55.005Z,150.25
2023-05-05T01:25:54.997Z,155.15
2023-05-05T01:26:54.974Z,151.26
2023-05-05T01:27:56.071Z,146.46
2023-05-05T01:28:55.976Z,142.39
2023-05-05T01:29:55.024Z,146.81
2023-05-05T01:30:54.961Z,150.40
2023-05-05T01:31:54.930Z,152.14
2023-05-05T01:32:55.054Z,157.31
2023-05-05T01:33:54.937Z,149.30
2023-05-05T01:34:55.928Z,139.65
2023-05-05T01:35:55.952Z,146.96
2023-05-05T01:36:55.920Z,152.57
2023-05-05T01:37:55.835Z,150.74
2023-05-05T01:38:54.902Z,152.10
2023-05-05T01:39:54.914Z,139.95
2023-05-05T01:40:54.820Z,146.09
2023-05-05T01:41:55.897Z,147.51
2023-05-05T01:42:54.823Z,154.29
2023-05-05T01:43:54.885Z,151.19
2023-05-05T01:44:54.894Z,145.99
2023-05-05T01:45:54.966Z,147.73
2023-05-05T01:46:55.892Z,147.49
2023-05-05T01:47:55.001Z,153.90
2023-05-05T01:48:55.927Z,148.04
2023-05-05T01:49:55.092Z,145.67
2023-05-05T01:50:54.865Z,145.57
2023-05-05T01:51:55.940Z,148.68
2023-05-05T01:52:54.876Z,142.58
2023-05-05T01:53:54.937Z,151.26
2023-05-05T01:54:55.019Z,154.77
2023-05-05T01:55:54.912Z,147.11
2023-05-05T01:56:55.899Z,146.73
2023-05-05T01:57:55.925Z,152.55
2023-05-05T01:58:54.942Z,147.22
2023-05-05T01:59:56.084Z,149.02
2023-05-05T02:00:54.953Z,144.42
2023-05-05T02:01:55.923Z,145.48
2023-05-05T02:02:56.148Z,146.91
2023-05-05T02:03:56.026Z,148.29
2023-05-05T02:04:54.953Z,152.52
2023-05-05T02:05:55.982Z,147.04
2023-05-05T02:06:55.970Z,148.62
2023-05-05T02:07:55.967Z,143.90
2023-05-05T02:08:55.049Z,140.70
2023-05-05T02:09:55.083Z,146.19
2023-05-05T02:10:55.067Z,146.06
2023-05-05T02:11:55.073Z,151.29
2023-05-05T02:12:55.061Z,146.74
2023-05-05T02:13:55.029Z,142.51
2023-05-05T02:14:55.101Z,150.44
2023-05-05T02:15:55.013Z,142.98
2023-05-05T02:16:55.067Z,140.42
2023-05-05T02:17:55.059Z,140.27
2023-05-05T02:18:55.968Z,147.69
2023-05-05T02:19:55.099Z,144.54
2023-05-05T02:20:54.985Z,136.90
2023-05-05T02:21:55.004Z,143.27
2023-05-05T02:22:56.084Z,140.86
2023-05-05T02:23:55.044Z,148.20
2023-05-05T02:24:54.996Z,145.42
2023-05-05T02:25:55.072Z,145.65
2023-05-05T02:26:55.047Z,146.24
2023-05-05T02:27:54.972Z,145.69
2023-05-05T02:28:56.090Z,142.79
2023-05-05T02:29:55.019Z,141.22
2023-05-05T02:30:55.051Z,142.27
2023-05-05T02:31:55.980Z,148.39
2023-05-05T02:32:55.018Z,141.07
2023-05-05T02:33:54.969Z,143.66
2023-05-05T02:34:55.991Z,149.46
2023-05-05T02:35:55.966Z,143.99
2023-05-05T02:36:56.045Z,150.54
2023-05-05T02:37:56.048Z,144.05
2023-05-05T02:38:54.975Z,143.73
2023-05-05T02:39:56.008Z,138.67
2023-05-05T02:40:54.972Z,140.96
2023-05-05T02:41:55.086Z,144.14
2023-05-05T02:42:55.174Z,138.63
2023-05-05T02:43:54.976Z,142.71
2023-05-05T02:44:55.107Z,143.95
2023-05-05T02:45:54.999Z,139.18
2023-05-05T02:46:56.230Z,145.00
2023-05-05T02:47:56.158Z,143.42
2023-05-05T02:48:55.087Z,134.58
2023-05-05T02:49:55.070Z,138.43
2023-05-05T02:50:55.079Z,140.70
2023-05-05T02:51:55.104Z,144.75
2023-05-05T02:52:55.028Z,143.61
2023-05-05T02:53:56.054Z,133.74
2023-05-05T02:54:55.132Z,148.00
2023-05-05T02:55:55.130Z,146.91
2023-05-05T02:56:56.112Z,139.31
2023-05-05T02:57:55.145Z,136.63
2023-05-05T02:58:55.114Z,145.56
2023-05-05T02:59:55.121Z,148.65
2023-05-05T03:00:55.143Z,143.63
2023-05-05T03:01:55.165Z,144.30
2023-05-05T03:02:55.280Z,146.47
2023-05-05T03:03:55.103Z,139.10
2023-05-05T03:04:55.057Z,141.16
2023-05-05T03:05:56.078Z,134.61
2023-05-05T03:06:56.060Z,138.64
2023-05-05T03:07:55.163Z,140.28
2023-05-05T03:08:55.079Z,136.14
2023-05-05T03:09:56.143Z,138.84
2023-05-05T03:10:55.187Z,140.29
2023-05-05T03:11:55.233Z,146.14
2023-05-05T03:12:56.160Z,131.91
2023-05-05T03:13:55.152Z,139.31
2023-05-05T03:14:55.098Z,139.52
2023-05-05T03:15:56.223Z,132.12
2023-05-05T03:16:55.160Z,136.67
2023-05-05T03:17:55.199Z,139.28
2023-05-05T03:18:55.173Z,140.09
2023-05-05T03:19:56.180Z,139.50
2023-05-05T03:20:56.240Z,137.62
2023-05-05T03:21:55.132Z,135.64
2023-05-05T03:22:55.170Z,137.16
2023-05-05T03:23:55.193Z,143.79
2023-05-05T03:24:56.197Z,142.34
2023-05-05T03:25:55.217Z,141.97
2023-05-05T03:26:55.189Z,134.83
2023-05-05T03:27:55.102Z,134.26
2023-05-05T03:28:55.181Z,132.41
2023-05-05T03:29:55.195Z,141.40
2023-05-05T03:30:56.113Z,144.94
2023-05-05T03:31:56.208Z,142.29
2023-05-05T03:32:56.161Z,143.13
2023-05-05T03:33:55.234Z,141.32
2023-05-05T03:34:55.220Z,136.63
2023-05-05T03:35:55.146Z,135.85
2023-05-05T03:36:56.137Z,139.14
2023-05-05T03:37:55.146Z,139.46
2023-05-05T03:38:55.285Z,145.09
2023-05-05T03:39:56.275Z,137.80
2023-05-05T03:40:55.252Z,137.04
2023-05-05T03:41:55.283Z,131.59
2023-05-05T03:42:55.172Z,136.50
2023-05-05T03:43:56.505Z,141.42
2023-05-05T03:44:56.310Z,138.92
2023-05-05T03:45:56.214Z,137.89
2023-05-05T03:46:55.221Z,134.96
2023-05-05T03:47:55.281Z,132.76
2023-05-05T03:48:55.211Z,131.68
2023-05-05T03:49:56.221Z,140.54
2023-05-05T03:50:56.230Z,140.43
2023-05-05T03:51:55.246Z,141.68
2023-05-05T03:52:55.258Z,134.57
2023-05-05T03:53:55.254Z,136.51
2023-05-05T03:54:56.311Z,139.99
2023-05-05T03:55:55.286Z,133.56
2023-05-05T03:56:56.299Z,131.78
2023-05-05T03:57:55.286Z,142.31
2023-05-05T03:58:56.283Z,134.73
2023-05-05T03:59:56.307Z,143.49
2023-05-05T04:00:55.327Z,134.60
2023-05-05T04:01:55.378Z,132.73
2023-05-05T04:02:55.483Z,134.64
2023-05-05T04:03:55.614Z,135.53
2023-05-05T04:04:56.431Z,132.45
2023-05-05T04:05:55.371Z,140.06
2023-05-05T04:06:56.397Z,132.87
2023-05-05T04:07:56.442Z,134.83
2023-05-05T04:08:56.423Z,135.56
2023-05-05T04:09:56.482Z,139.42
2023-05-05T04:10:55.443Z,135.42
2023-05-05T04:11:56.447Z,141.50
2023-05-05T04:12:55.603Z,132.68
2023-05-05T04:13:55.521Z,134.78
2023-05-05T04:14:56.519Z,135.62
2023-05-05T04:15:56.604Z,133.22
2023-05-05T04:16:55.563Z,139.37
2023-05-05T04:17:55.747Z,136.97
2023-05-05T04:18:55.588Z,139.26
2023-05-05T04:19:55.584Z,137.39
2023-05-05T04:20:55.593Z,138.35
2023-05-05T04:21:56.661Z,139.95
2023-05-05T04:22:55.688Z,137.95
2023-05-05T04:23:55.592Z,131.73
2023-05-05T04:24:56.664Z,134.51
2023-05-05T04:25:55.759Z,137.98
2023-05-05T04:26:55.697Z,137.97
2023-05-05T04:27:56.682Z,134.17
2023-05-05T04:28:56.726Z,133.10
2023-05-05T04:29:55.704Z,132.90
2023-05-05T04:30:56.840Z,138.91
2023-05-05T04:31:55.797Z,141.76
2023-05-05T04:32:56.824Z,129.10
2023-05-05T04:33:55.842Z,133.55
2023-05-05T04:34:55.888Z,139.94
2023-05-05T04:35:55.933Z,135.61
2023-05-05T04:36:55.916Z,138.30
2023-05-05T04:37:55.805Z,129.51
2023-05-05T04:38:56.962Z,135.96
2023-05-05T04:39:55.887Z,131.06
2023-05-05T04:40:55.957Z,130.01
2023-05-05T04:41:55.927Z,130.17
2023-05-05T04:42:55.938Z,131.51
2023-05-05T04:43:55.895Z,129.42
2023-05-05T04:44:55.926Z,133.36
2023-05-05T04:45:55.995Z,138.20
2023-05-05T04:46:56.034Z,133.68
2023-05-05T04:47:56.060Z,136.79
2023-05-05T04:48:55.988Z,130.88
2023-05-05T04:49:57.111Z,120.84
2023-05-05T04:50:55.969Z,132.12
2023-05-05T04:51:56.068Z,129.46
2023-05-05T04:52:56.059Z,128.07
2023-05-05T04:53:57.047Z,130.72
2023-05-05T04:54:57.039Z,123.00
2023-05-05T04:55:57.091Z,131.67
2023-05-05T04:56:57.027Z,131.24
2023-05-05T04:57:57.064Z,131.50
2023-05-05T04:58:57.022Z,128.06
2023-05-05T04:59:56.090Z,130.92
2023-05-05T05:00:56.093Z,131.22
2023-05-05T05:01:56.135Z,136.43
2023-05-05T05:02:57.102Z,132.47
2023-05-05T05:03:56.174Z,129.45
2023-05-05T05:04:56.106Z,132.57
2023-05-05T05:05:56.155Z,128.44
2023-05-05T05:06:58.961Z,129.18
2023-05-05T05:07:56.116Z,129.79
2023-05-05T05:08:56.191Z,133.06
2023-05-05T05:09:56.068Z,119.03
2023-05-05T05:10:57.090Z,124.91
2023-05-05T05:11:57.126Z,131.79
2023-05-05T05:12:56.128Z,126.60
2023-05-05T05:13:56.056Z,114.55
2023-05-05T05:14:57.067Z,118.64
2023-05-05T05:15:57.207Z,118.79
2023-05-05T05:16:56.089Z,118.50
2023-05-05T05:17:56.055Z,119.98
2023-05-05T05:18:56.019Z,123.77
2023-05-05T05:19:57.041Z,123.02
2023-05-05T05:20:56.002Z,123.07
2023-05-05T05:21:57.090Z,125.42
2023-05-05T05:22:55.950Z,119.22
2023-05-05T05:23:57.024Z,126.66
2023-05-05T05:24:55.955Z,130.88
2023-05-05T05:25:56.029Z,135.02
2023-05-05T05:26:55.953Z,127.39
2023-05-05T05:28:08.848Z,122.94
2023-05-05T05:28:57.008Z,123.40
2023-05-05T05:29:56.964Z,125.58
2023-05-05T05:30:55.988Z,126.91
2023-05-05T05:31:58.253Z,131.53
2023-05-05T05:32:56.918Z,136.21
2023-05-05T05:33:57.127Z,135.13
2023-05-05T05:34:55.947Z,131.00
2023-05-05T05:35:56.958Z,137.06
2023-05-05T05:36:55.959Z,136.91
2023-05-05T05:37:56.083Z,135.55
2023-05-05T05:38:56.618Z,135.98
2023-05-05T05:39:56.050Z,131.15
2023-05-05T05:40:56.388Z,136.05
2023-05-05T05:41:57.307Z,127.68
2023-05-05T05:42:56.549Z,127.72
2023-05-05T05:43:57.329Z,135.04
2023-05-05T05:44:56.416Z,131.14
2023-05-05T05:45:56.270Z,136.60
2023-05-05T05:46:56.205Z,135.70
2023-05-05T05:47:57.242Z,139.89
2023-05-05T05:48:56.681Z,139.28
2023-05-05T05:49:57.489Z,141.73
2023-05-05T05:50:57.447Z,149.46
2023-05-05T05:51:57.338Z,158.75
2023-05-05T05:52:57.611Z,163.26
2023-05-05T05:53:58.891Z,167.87
2023-05-05T05:54:57.061Z,168.18
2023-05-05T05:55:56.993Z,169.78
2023-05-05T08:43:54.893Z,25.00
2023-05-05T08:44:54.639Z,25.00
2023-05-05T08:45:54.608Z,25.00
2023-05-05T08:46:54.595Z,25.00
2023-05-05T08:47:54.654Z,25.00
2023-05-05T08:48:54.610Z,0.00
2023-05-05T08:49:54.563Z,0.00
2023-05-05T08:50:55.021Z,0.00
2023-05-05T08:51:54.579Z,0.00
2023-05-05T08:52:54.543Z,0.00
2023-05-05T08:53:55.682Z,0.00
2023-05-05T08:54:54.572Z,0.00
2023-05-05T08:55:54.596Z,0.00
2023-05-05T08:56:55.545Z,0.00
2023-05-05T08:57:54.488Z,0.00
2023-05-05T08:58:55.768Z,0.00
2023-05-05T08:59:54.618Z,0.00
2023-05-05T09:00:54.572Z,25.64
2023-05-05T09:01:54.597Z,24.76
2023-05-05T09:02:54.643Z,28.59
2023-05-05T09:03:54.505Z,22.95
2023-05-05T09:04:54.452Z,35.73
2023-05-05T09:05:55.479Z,49.90
2023-05-05T09:06:55.459Z,42.87
2023-05-05T09:07:54.526Z,25.00
2023-05-05T09:08:57.505Z,25.14
2023-05-05T09:09:55.398Z,13.20
2023-05-05T09:10:54.473Z,0.00
2023-05-05T09:11:55.442Z,0.00
2023-05-05T09:12:55.469Z,0.00
2023-05-05T09:13:55.363Z,0.00
2023-05-05T09:14:57.241Z,9.10
2023-05-05T09:15:54.477Z,0.00
2023-05-05T09:16:54.425Z,0.33
2023-05-05T09:17:54.404Z,0.00
2023-05-05T09:18:55.368Z,0.00
2023-05-05T09:19:54.385Z,0.00
2023-05-05T09:20:54.396Z,25.00
2023-05-05T09:21:55.314Z,26.28
2023-05-05T09:22:54.297Z,28.84
2023-05-05T09:23:54.566Z,25.00
2023-05-05T09:24:54.337Z,19.90
2023-05-05T09:25:54.325Z,24.79
2023-05-05T09:26:54.308Z,25.00
2023-05-05T09:27:55.279Z,24.19
2023-05-05T09:28:54.292Z,29.70
2023-05-05T09:29:54.251Z,27.49
2023-05-05T09:30:55.295Z,32.96
2023-05-05T09:31:54.375Z,32.43
2023-05-05T09:32:55.410Z,41.23
2023-05-05T09:33:55.227Z,44.22
2023-05-05T09:34:54.236Z,50.58
2023-05-05T09:35:55.226Z,47.44
2023-05-05T09:36:55.232Z,54.79
2023-05-05T09:37:54.255Z,75.94
2023-05-05T09:38:54.260Z,91.60
2023-05-05T09:39:54.191Z,95.37
2023-05-05T09:40:55.236Z,93.71
2023-05-05T09:41:54.245Z,91.99
2023-05-05T09:42:54.205Z,89.85
2023-05-05T09:43:54.224Z,75.46
2023-05-05T09:44:54.160Z,80.41
2023-05-05T09:45:54.226Z,90.69
2023-05-05T09:46:54.156Z,121.62
2023-05-05T09:47:59.620Z,151.23
2023-05-05T09:48:55.293Z,151.97
